NWWM

Details ICAO NWWM (GEA)
Name NOUMEA MAGENTA
Region New Caledonia
Timezone Pacific/Noumea (UTC+11.0)
Plans Departing 19
Arriving 17
Stats Elevation 10 ft / 3 m (AMSL)
Location -22.258278° 166.472805°
Runways 1
Magnetic Variation 12.445° E
Sunrise 2017-12-15 18:06:18 UTC / 2017-12-16 05:06:18 Local
Sunset 2017-12-16 07:35:30 UTC / 2017-12-16 18:35:30 Local
Advertisement - Login to hide

Runways

ID Width Length Bearing (true) Bearing (mag) Surface Threshold Offset Overrun Length
17 98 ft / 30 m 4,153 ft / 1,266 m 178.58° 166.13° Asphalt 685 ft / 209 m 0 ft / 0 m
35 98 ft / 30 m 4,153 ft / 1,266 m 358.58° 346.13° Asphalt 500 ft / 152 m 0 ft / 0 m

Map

Weather


0- 5 10 15 20 25 30 35+ Temperature / ° C

Clouds and Precipitation
Forecast for 2017-12-16 00:00 UTC. Updated an hour ago

Ground ~20,000 ft ~40,000 ft Winds

METAR

Not found

TAF

TAF NWWM 151100Z 1512/1612 12016KT 9999 BKN025 SCT045 TEMPO 1512/1610 4000 SHRA SCT018TCU PROB30 TEMPO 1522/1606 2500 +SHRA BKN012 SCT018CB

Frequencies

Recorded 126.60 MHz ATIS
Tower 118.30 MHz TWR
Recorded 126.40 MHz ATIS
Approach 124.30 MHz APP
Warning: Do not use this data for real-world aviation or navigation. No guarantee of current accuracy is given.